Time;durP1;ratioP1;P1;durP2;ratioP2;P2;SDS_P1;SDS_P2;PMS_P1;PMS_P2;Temp;Humidity;BMP_temperature;BMP_pressure;BME280_temperature;BME280_humidity;BME280_pressure;Samples;Min_cycle;Max_cycle;Signal;HPM_P1;HPM_P2
2021/03/02 00:02:17;;;;;;;51.83;22.63;;;3.40;95.10;;;;;;4899299;29;20029;-91
2021/03/02 00:04:44;;;;;;;52.45;23.17;;;3.40;95.10;;;;;;4899370;29;20478;-91
2021/03/02 00:07:14;;;;;;;55.05;23.73;;;3.30;95.10;;;;;;4899261;29;20085;-91
2021/03/02 00:09:39;;;;;;;52.75;23.83;;;3.30;95.20;;;;;;4899010;29;20059;-90
2021/03/02 00:12:08;;;;;;;64.70;25.27;;;3.30;95.30;;;;;;4898317;29;20020;-90
2021/03/02 00:14:35;;;;;;;51.47;21.77;;;3.30;95.30;;;;;;4897776;29;20084;-91
2021/03/02 00:17:02;;;;;;;55.13;25.02;;;3.30;95.30;;;;;;4899554;29;20032;-90
2021/03/02 00:19:38;;;;;;;59.47;23.95;;;3.30;95.30;;;;;;4893520;29;20501;-90
2021/03/02 00:22:13;;;;;;;57.47;24.13;;;3.20;95.30;;;;;;4883574;29;20061;-90
2021/03/02 00:24:41;;;;;;;58.22;23.33;;;3.20;95.50;;;;;;4892306;29;20032;-91
2021/03/02 00:27:11;;;;;;;60.70;24.48;;;3.20;95.40;;;;;;4908169;29;20032;-91
2021/03/02 00:29:40;;;;;;;61.70;24.23;;;3.20;95.40;;;;;;4897138;29;20048;-92
2021/03/02 00:32:06;;;;;;;58.33;23.23;;;3.20;95.30;;;;;;4894863;29;20024;-92
2021/03/02 00:34:32;;;;;;;58.08;25.00;;;3.20;95.30;;;;;;4897484;29;20043;-91
2021/03/02 00:36:57;;;;;;;55.55;23.73;;;3.10;95.40;;;;;;4896877;29;20032;-91
2021/03/02 00:39:23;;;;;;;60.22;25.05;;;3.10;95.40;;;;;;4897553;29;20474;-91
2021/03/02 00:41:48;;;;;;;63.67;26.20;;;3.10;95.50;;;;;;4893408;29;20124;-92
2021/03/02 00:44:14;;;;;;;58.13;25.33;;;3.10;95.50;;;;;;4892395;29;20477;-91
2021/03/02 00:46:40;;;;;;;54.40;23.35;;;3.10;95.50;;;;;;4899951;29;20035;-91
2021/03/02 00:49:05;;;;;;;64.78;24.98;;;3.00;95.50;;;;;;4905402;29;20033;-91
2021/03/02 00:51:31;;;;;;;60.47;24.27;;;3.00;95.50;;;;;;4887037;29;20124;-92
2021/03/02 00:53:56;;;;;;;62.08;26.75;;;3.00;95.60;;;;;;4891790;29;20020;-90
2021/03/02 00:56:22;;;;;;;59.78;26.38;;;3.00;95.60;;;;;;4897945;29;20039;-92
2021/03/02 00:58:47;;;;;;;62.75;26.00;;;3.00;95.60;;;;;;4886123;29;20482;-91
2021/03/02 01:01:14;;;;;;;59.55;25.10;;;3.00;95.60;;;;;;4884576;29;20107;-93
2021/03/02 01:03:40;;;;;;;59.20;25.75;;;3.00;95.60;;;;;;4885686;29;20454;-92
2021/03/02 01:06:05;;;;;;;64.45;27.40;;;2.90;95.60;;;;;;4895538;29;20028;-92
2021/03/02 01:08:31;;;;;;;62.45;24.80;;;2.90;95.70;;;;;;4885390;29;20056;-92
2021/03/02 01:10:56;;;;;;;61.47;27.10;;;2.80;95.60;;;;;;4889935;29;20509;-91
2021/03/02 01:13:22;;;;;;;60.78;26.42;;;2.80;95.70;;;;;;4897518;29;20056;-91
2021/03/02 01:15:47;;;;;;;61.00;25.80;;;2.80;95.70;;;;;;4889954;29;20115;-93
2021/03/02 01:18:13;;;;;;;58.33;26.65;;;2.80;95.70;;;;;;4892552;29;20029;-92
2021/03/02 01:20:39;;;;;;;66.60;26.98;;;2.80;95.70;;;;;;4889356;29;20502;-92
2021/03/02 01:23:04;;;;;;;62.50;25.73;;;2.80;95.90;;;;;;4886000;29;20024;-93
2021/03/02 01:25:30;;;;;;;61.13;25.35;;;2.80;95.80;;;;;;4894852;29;20068;-92
2021/03/02 01:27:55;;;;;;;58.90;23.30;;;2.70;95.80;;;;;;4891040;29;20032;-92
2021/03/02 01:30:23;;;;;;;68.38;27.70;;;2.70;95.80;;;;;;4893305;29;20056;-93
2021/03/02 01:32:49;;;;;;;60.78;24.10;;;2.60;95.80;;;;;;4895864;29;20031;-91
2021/03/02 01:35:15;;;;;;;59.90;25.05;;;2.60;95.80;;;;;;4894815;29;20028;-92
2021/03/02 01:37:41;;;;;;;67.45;26.63;;;2.60;96.10;;;;;;4893542;29;20434;-93
2021/03/02 01:40:15;;;;;;;63.80;27.65;;;2.60;95.90;;;;;;4882741;29;20097;-92
2021/03/02 01:42:41;;;;;;;68.10;27.08;;;2.60;95.90;;;;;;4887988;29;20029;-93
2021/03/02 01:45:09;;;;;;;63.05;26.17;;;2.60;95.90;;;;;;4896343;29;20024;-92
2021/03/02 01:47:35;;;;;;;62.70;25.48;;;2.60;96.00;;;;;;4895954;29;20028;-92
2021/03/02 01:50:04;;;;;;;64.93;25.13;;;2.50;95.90;;;;;;4890106;29;20044;-92
2021/03/02 01:52:29;;;;;;;62.63;24.70;;;2.50;96.00;;;;;;4887426;29;20025;-92
2021/03/02 01:54:55;;;;;;;57.70;24.45;;;2.50;96.00;;;;;;4889203;29;20025;-92
2021/03/02 01:57:21;;;;;;;66.57;24.88;;;2.50;96.00;;;;;;4898531;29;20519;-91
2021/03/02 01:59:46;;;;;;;75.28;25.90;;;2.40;96.00;;;;;;4889577;29;20033;-92
2021/03/02 02:02:21;;;;;;;66.90;24.95;;;2.40;96.00;;;;;;4884386;29;20089;-92
2021/03/02 02:04:53;;;;;;;69.35;27.30;;;2.40;96.00;;;;;;4892892;29;20405;-93
2021/03/02 02:07:21;;;;;;;;;;;2.40;96.00;;;;;;4895614;29;20036;-91
2021/03/02 02:09:54;;;;;;;65.53;23.98;;;2.30;96.00;;;;;;4896026;29;19927;-92
2021/03/02 02:12:27;;;;;;;60.95;24.63;;;2.30;96.10;;;;;;4891209;29;20035;-92
2021/03/02 02:14:58;;;;;;;59.45;25.60;;;2.30;96.00;;;;;;4891728;29;20108;-94
2021/03/02 02:17:37;;;;;;;62.80;25.50;;;2.40;96.20;;;;;;4895817;29;20039;-91
2021/03/02 02:20:10;;;;;;;58.45;24.15;;;2.30;96.00;;;;;;4903769;29;20036;-92
2021/03/02 02:22:57;;;;;;;66.88;25.92;;;2.30;96.00;;;;;;4895007;29;20052;-92
2021/03/02 02:25:36;;;;;;;68.53;26.35;;;2.30;96.10;;;;;;4881046;29;20044;-93
2021/03/02 02:28:03;;;;;;;62.40;25.38;;;2.20;96.10;;;;;;4895276;29;20175;-92
2021/03/02 02:30:30;;;;;;;71.97;26.80;;;2.20;96.10;;;;;;4896863;29;20048;-93
2021/03/02 02:32:56;;;;;;;76.82;28.65;;;2.20;96.10;;;;;;4894957;29;20037;-93
2021/03/02 02:35:23;;;;;;;65.68;25.50;;;2.20;96.20;;;;;;4896140;29;20029;-94
2021/03/02 02:37:51;;;;;;;72.75;28.08;;;2.20;96.10;;;;;;4897015;29;20035;-93
2021/03/02 02:40:19;;;;;;;74.63;28.65;;;2.20;96.20;;;;;;4887884;29;20032;-94
2021/03/02 02:42:50;;;;;;;65.70;26.88;;;2.20;96.20;;;;;;4898222;29;20115;-94
2021/03/02 02:45:16;;;;;;;70.90;28.60;;;2.10;96.20;;;;;;4897776;29;20039;-93
2021/03/02 02:47:46;;;;;;;75.65;29.45;;;2.10;96.20;;;;;;4897242;29;20025;-93
2021/03/02 02:50:14;;;;;;;69.13;28.55;;;2.10;96.20;;;;;;4897935;29;20398;-92
2021/03/02 02:52:40;;;;;;;74.95;27.88;;;2.10;96.30;;;;;;4890136;29;20028;-92
2021/03/02 02:55:06;;;;;;;70.60;28.40;;;2.10;96.30;;;;;;4895154;29;20088;-93
2021/03/02 02:57:39;;;;;;;75.70;28.95;;;2.10;96.30;;;;;;4900518;29;20485;-93
2021/03/02 03:00:05;;;;;;;77.18;27.98;;;2.00;96.30;;;;;;4899275;29;20040;-92
2021/03/02 03:02:34;;;;;;;71.90;27.27;;;2.00;96.50;;;;;;4899452;29;20485;-93
2021/03/02 03:05:14;;;;;;;66.97;28.38;;;2.00;96.30;;;;;;4897229;29;20026;-92
2021/03/02 03:08:03;;;;;;;77.13;29.98;;;2.00;96.30;;;;;;4899592;29;20493;-93
2021/03/02 03:10:30;;;;;;;69.90;27.63;;;2.00;96.40;;;;;;4901461;29;20041;-92
2021/03/02 03:13:01;;;;;;;71.28;26.42;;;1.90;96.30;;;;;;4897835;29;20505;-93
2021/03/02 03:15:27;;;;;;;78.70;29.17;;;1.90;96.30;;;;;;4898465;29;20040;-94
2021/03/02 03:17:56;;;;;;;71.47;27.30;;;1.90;96.30;;;;;;4888078;29;20056;-93
2021/03/02 03:20:23;;;;;;;72.50;27.17;;;1.90;96.40;;;;;;4881111;29;20037;-94
2021/03/02 03:22:50;;;;;;;73.05;27.83;;;1.90;96.40;;;;;;4885659;29;20968;-93
2021/03/02 03:25:17;;;;;;;80.20;29.50;;;1.90;96.40;;;;;;4898282;29;20033;-92
2021/03/02 03:27:51;;;;;;;62.80;25.00;;;1.90;96.50;;;;;;4899575;29;20021;-92
2021/03/02 03:30:17;;;;;;;76.43;26.40;;;1.90;96.40;;;;;;4891066;29;20041;-92
2021/03/02 03:32:47;;;;;;;69.43;26.38;;;1.90;96.50;;;;;;4887019;29;20029;-92
2021/03/02 03:35:13;;;;;;;79.43;28.88;;;1.90;96.50;;;;;;4884581;29;20029;-93
2021/03/02 03:37:39;;;;;;;70.05;27.23;;;1.90;96.50;;;;;;4893506;29;20084;-94
2021/03/02 03:40:05;;;;;;;77.80;27.20;;;1.80;96.50;;;;;;4895332;29;20060;-94
2021/03/02 03:42:31;;;;;;;68.95;26.77;;;1.80;96.40;;;;;;4890180;29;20397;-94
2021/03/02 03:44:56;;;;;;;67.28;25.40;;;1.80;96.50;;;;;;4890041;29;20025;-92
2021/03/02 03:47:22;;;;;;;80.57;27.95;;;1.80;96.40;;;;;;4889796;29;20120;-94
2021/03/02 03:49:48;;;;;;;82.63;29.65;;;1.70;96.50;;;;;;4896549;29;20557;-93
2021/03/02 03:52:17;;;;;;;79.55;29.35;;;1.80;96.50;;;;;;4897590;29;20029;-94
2021/03/02 03:54:43;;;;;;;75.38;28.92;;;1.80;96.60;;;;;;4898290;29;20036;-94
2021/03/02 03:57:10;;;;;;;71.40;27.70;;;1.70;96.50;;;;;;4887348;29;20497;-94
2021/03/02 03:59:38;;;;;;;77.25;27.95;;;1.70;96.50;;;;;;4894340;29;20032;-94
2021/03/02 04:02:03;;;;;;;73.20;27.02;;;1.70;96.60;;;;;;4894366;29;20084;-94
2021/03/02 04:04:29;;;;;;;76.50;28.55;;;1.70;96.60;;;;;;4884737;29;20036;-95
2021/03/02 04:06:56;;;;;;;62.30;24.42;;;1.70;96.50;;;;;;4897278;29;20524;-94
2021/03/02 04:09:22;;;;;;;73.75;27.75;;;1.70;96.60;;;;;;4896838;29;20083;-94
2021/03/02 04:11:48;;;;;;;73.72;26.08;;;1.70;96.60;;;;;;4892820;29;20468;-94
2021/03/02 04:14:13;;;;;;;71.03;26.60;;;1.70;96.60;;;;;;4892587;29;20048;-92
2021/03/02 04:16:41;;;;;;;73.63;27.92;;;1.70;96.60;;;;;;4900794;29;20093;-93
2021/03/02 04:19:06;;;;;;;75.10;27.88;;;1.70;96.60;;;;;;4898048;29;20021;-94
2021/03/02 04:21:32;;;;;;;68.07;26.27;;;1.60;96.60;;;;;;4891751;29;20500;-95
2021/03/02 04:23:58;;;;;;;73.85;27.95;;;1.60;96.60;;;;;;4897105;29;20033;-95
2021/03/02 04:26:24;;;;;;;76.32;27.02;;;1.60;96.60;;;;;;4898005;29;20025;-94
2021/03/02 04:28:49;;;;;;;74.18;28.77;;;1.60;96.70;;;;;;4899948;29;20036;-94
2021/03/02 04:31:15;;;;;;;71.47;26.70;;;1.60;96.70;;;;;;4894481;29;20044;-93
2021/03/02 04:33:40;;;;;;;74.15;28.25;;;1.60;96.70;;;;;;4887880;29;20070;-95
2021/03/02 04:36:06;;;;;;;80.47;27.20;;;1.60;96.60;;;;;;4897204;29;20024;-94
2021/03/02 04:38:32;;;;;;;72.70;27.88;;;1.60;96.80;;;;;;4898658;29;20036;-94
2021/03/02 04:40:57;;;;;;;79.80;30.15;;;1.60;96.80;;;;;;4895021;29;20652;-95
2021/03/02 04:43:23;;;;;;;78.72;28.67;;;1.60;97.10;;;;;;4897966;29;20401;-93
2021/03/02 04:45:50;;;;;;;74.30;27.40;;;1.60;96.70;;;;;;4897803;29;20029;-93
2021/03/02 04:48:16;;;;;;;71.38;27.65;;;1.60;96.70;;;;;;4897125;29;20100;-93
2021/03/02 04:50:41;;;;;;;75.63;28.58;;;1.60;96.70;;;;;;4896423;29;20136;-94
2021/03/02 04:53:07;;;;;;;72.05;27.02;;;1.60;96.80;;;;;;4894911;29;20035;-94
2021/03/02 04:55:32;;;;;;;67.85;25.75;;;1.60;96.80;;;;;;4894827;29;20132;-94
2021/03/02 04:57:58;;;;;;;80.95;29.00;;;1.60;96.80;;;;;;4891687;29;20035;-94
2021/03/02 05:00:24;;;;;;;84.13;29.95;;;1.60;96.80;;;;;;4896575;29;20044;-95
2021/03/02 05:02:50;;;;;;;75.50;27.65;;;1.60;96.80;;;;;;4888020;29;20114;-94
2021/03/02 05:05:15;;;;;;;76.88;28.15;;;1.60;96.80;;;;;;4897193;29;20032;-94
2021/03/02 05:07:41;;;;;;;65.25;25.40;;;1.50;96.80;;;;;;4897592;29;20036;-95
2021/03/02 05:10:07;;;;;;;75.20;26.38;;;1.60;96.80;;;;;;4885336;29;20053;-93
2021/03/02 05:12:32;;;;;;;77.10;27.58;;;1.50;96.80;;;;;;4889481;29;20028;-94
2021/03/02 05:14:58;;;;;;;76.63;27.83;;;1.50;96.80;;;;;;4886670;29;20443;-95
2021/03/02 05:17:24;;;;;;;70.78;26.85;;;1.50;96.90;;;;;;4886380;29;20617;-94
2021/03/02 05:19:49;;;;;;;67.40;25.38;;;1.50;96.90;;;;;;4898273;29;20401;-93
2021/03/02 05:22:15;;;;;;;84.95;29.25;;;1.50;96.90;;;;;;4896536;29;20024;-95
2021/03/02 05:24:41;;;;;;;71.43;25.73;;;1.50;96.90;;;;;;4907630;29;20040;-94
2021/03/02 05:27:06;;;;;;;68.85;26.80;;;1.50;96.90;;;;;;4900826;29;20029;-94
2021/03/02 05:29:32;;;;;;;79.38;28.98;;;1.40;96.90;;;;;;4897937;29;20040;-94
2021/03/02 05:31:57;;;;;;;72.07;25.83;;;1.50;97.00;;;;;;4889208;29;20028;-94
2021/03/02 05:34:23;;;;;;;71.35;25.05;;;1.40;96.90;;;;;;4887604;29;20067;-93
2021/03/02 05:36:49;;;;;;;80.93;27.48;;;1.40;96.90;;;;;;4896495;29;20035;-94
2021/03/02 05:39:14;;;;;;;66.70;25.95;;;1.50;97.00;;;;;;4893871;29;20033;-94
2021/03/02 05:41:42;;;;;;;74.97;29.00;;;1.40;96.90;;;;;;4895871;29;20115;-92
2021/03/02 05:44:10;;;;;;;76.30;27.30;;;1.40;97.00;;;;;;4886776;29;20031;-93
2021/03/02 05:46:37;;;;;;;80.55;28.88;;;1.40;97.00;;;;;;4889067;29;20032;-94
2021/03/02 05:49:04;;;;;;;77.78;28.00;;;1.40;96.90;;;;;;4890998;29;20067;-94
2021/03/02 05:51:31;;;;;;;81.20;28.48;;;1.40;97.00;;;;;;4890902;29;20044;-93
2021/03/02 05:53:58;;;;;;;83.13;29.95;;;1.30;96.90;;;;;;4903729;29;20020;-94
2021/03/02 05:56:24;;;;;;;90.78;30.42;;;1.30;97.00;;;;;;4899556;29;20044;-93
2021/03/02 05:58:51;;;;;;;80.13;28.63;;;1.30;97.10;;;;;;4900858;29;20028;-94
2021/03/02 06:01:17;;;;;;;76.78;28.92;;;1.40;97.10;;;;;;4901511;29;20025;-94
2021/03/02 06:03:43;;;;;;;72.40;27.77;;;1.40;97.20;;;;;;4895949;29;20029;-94
2021/03/02 06:06:09;;;;;;;77.32;30.13;;;1.40;97.10;;;;;;4898649;29;20039;-93
2021/03/02 06:08:34;;;;;;;69.70;25.80;;;1.30;97.00;;;;;;4893700;29;20048;-93
2021/03/02 06:11:26;;;;;;;82.85;28.15;;;1.30;97.00;;;;;;4891812;29;20503;-94
2021/03/02 06:13:52;;;;;;;79.57;29.10;;;1.30;97.10;;;;;;4901027;29;20149;-95
2021/03/02 06:16:18;;;;;;;72.20;25.67;;;1.30;97.20;;;;;;4899992;29;20045;-94
2021/03/02 06:18:48;;;;;;;75.50;28.48;;;1.30;97.10;;;;;;4900913;29;20501;-94
2021/03/02 06:21:14;;;;;;;67.13;26.30;;;1.30;97.10;;;;;;4903201;29;20025;-94
2021/03/02 06:23:50;;;;;;;76.30;26.80;;;1.30;97.10;;;;;;4892537;29;20075;-95
2021/03/02 06:26:25;;;;;;;71.10;26.08;;;1.30;97.20;;;;;;4888958;29;20025;-94
2021/03/02 06:29:10;;;;;;;80.82;28.67;;;1.30;97.20;;;;;;4903549;29;20039;-96
2021/03/02 06:31:54;;;;;;;80.40;29.23;;;1.30;97.20;;;;;;4899752;29;20524;-94
2021/03/02 06:34:21;;;;;;;71.32;26.63;;;1.30;97.20;;;;;;4886933;29;20211;-96
2021/03/02 06:36:53;;;;;;;73.53;25.60;;;1.30;97.10;;;;;;4899703;29;20030;-94
2021/03/02 06:39:26;;;;;;;74.87;25.97;;;1.30;97.20;;;;;;4906388;29;20040;-94
2021/03/02 06:42:07;;;;;;;74.28;28.13;;;1.30;97.20;;;;;;4904674;29;20052;-94
2021/03/02 06:44:33;;;;;;;80.10;27.92;;;1.30;97.30;;;;;;4902989;29;20481;-94
2021/03/02 06:46:58;;;;;;;77.47;27.17;;;1.40;97.20;;;;;;4901309;29;20029;-95
2021/03/02 06:49:46;;;;;;;81.00;28.75;;;1.30;97.20;;;;;;4897508;29;20121;-95
2021/03/02 06:52:17;;;;;;;72.55;26.65;;;1.30;97.20;;;;;;4896622;29;20029;-94
2021/03/02 06:54:43;;;;;;;90.72;29.52;;;1.40;97.30;;;;;;4899007;29;20092;-94
2021/03/02 06:57:10;;;;;;;71.97;27.88;;;1.40;97.60;;;;;;4898628;29;20033;-95
2021/03/02 06:59:36;;;;;;;75.65;29.27;;;1.40;97.30;;;;;;4904716;29;20055;-94
2021/03/02 07:02:02;;;;;;;84.72;30.77;;;1.50;97.40;;;;;;4902534;29;20021;-95
2021/03/02 07:04:30;;;;;;;75.10;27.73;;;1.50;97.40;;;;;;4921672;29;20104;-94
2021/03/02 07:06:58;;;;;;;80.75;29.83;;;1.60;97.40;;;;;;4902388;29;20031;-93
2021/03/02 07:09:25;;;;;;;85.30;29.17;;;1.60;97.40;;;;;;4906256;29;20060;-95
2021/03/02 07:11:53;;;;;;;80.65;30.38;;;1.70;97.40;;;;;;4898689;29;20140;-95
2021/03/02 07:14:19;;;;;;;79.65;28.92;;;1.70;97.40;;;;;;4890778;29;20115;-95
2021/03/02 07:16:47;;;;;;;78.30;29.92;;;1.80;97.40;;;;;;4901226;29;20067;-94
2021/03/02 07:19:23;;;;;;;80.72;30.75;;;1.80;97.40;;;;;;4883906;29;20024;-94
2021/03/02 07:21:57;;;;;;;88.47;32.15;;;1.90;97.40;;;;;;4900032;29;20112;-95
2021/03/02 07:24:29;;;;;;;84.55;32.35;;;1.90;97.40;;;;;;4899710;29;20071;-94
2021/03/02 07:26:57;;;;;;;76.97;30.88;;;2.00;97.40;;;;;;4899087;29;20021;-94
2021/03/02 07:29:23;;;;;;;73.25;27.95;;;2.10;97.40;;;;;;4898681;29;20453;-93
2021/03/02 07:31:49;;;;;;;79.85;30.33;;;2.10;97.40;;;;;;4898818;29;20092;-93
2021/03/02 07:34:14;;;;;;;75.25;29.05;;;2.20;97.40;;;;;;4893536;29;20028;-96
2021/03/02 07:36:42;;;;;;;79.07;31.02;;;2.20;97.40;;;;;;4900407;29;20481;-93
2021/03/02 07:39:14;;;;;;;81.60;31.48;;;2.30;97.40;;;;;;4891300;29;20371;-95
2021/03/02 07:41:40;;;;;;;76.35;27.77;;;2.40;97.40;;;;;;4881384;29;20061;-93
2021/03/02 07:44:07;;;;;;;86.32;31.60;;;2.50;97.40;;;;;;4890290;29;20021;-93
2021/03/02 07:46:41;;;;;;;78.10;31.23;;;2.50;97.40;;;;;;4900043;29;20115;-92
2021/03/02 07:49:22;;;;;;;81.47;31.25;;;2.60;97.40;;;;;;4899280;29;20040;-93
2021/03/02 07:52:00;;;;;;;74.75;31.40;;;2.70;97.40;;;;;;4899838;29;20497;-93
2021/03/02 07:54:25;;;;;;;68.20;29.00;;;2.80;97.30;;;;;;4897077;29;20036;-93
2021/03/02 07:57:13;;;;;;;81.50;31.45;;;2.90;97.30;;;;;;4899646;29;20068;-92
2021/03/02 07:59:38;;;;;;;70.30;28.00;;;3.00;97.30;;;;;;4899693;29;20031;-91
2021/03/02 08:02:17;;;;;;;73.88;29.85;;;3.20;97.30;;;;;;4894685;29;20111;-94
2021/03/02 08:04:48;;;;;;;72.20;29.80;;;3.30;97.20;;;;;;4899498;29;20040;-93
2021/03/02 08:07:25;;;;;;;76.90;31.83;;;3.30;97.20;;;;;;4901525;29;20485;-93
2021/03/02 08:09:53;;;;;;;64.55;29.48;;;3.50;97.20;;;;;;4898531;29;20055;-92
2021/03/02 08:12:36;;;;;;;64.18;28.33;;;3.60;97.10;;;;;;4898544;29;20072;-92
2021/03/02 08:15:16;;;;;;;65.20;29.35;;;3.80;97.10;;;;;;4894747;29;20028;-93
2021/03/02 08:17:42;;;;;;;63.45;29.67;;;3.90;97.10;;;;;;4900227;29;20507;-94
2021/03/02 08:20:09;;;;;;;61.17;27.77;;;4.00;97.00;;;;;;4904718;29;20123;-87
2021/03/02 08:22:41;;;;;;;60.65;27.60;;;4.20;97.00;;;;;;4898267;29;20500;-90
2021/03/02 08:25:27;;;;;;;58.60;28.25;;;4.30;96.90;;;;;;4894456;29;20032;-92
2021/03/02 08:27:58;;;;;;;64.10;28.73;;;4.50;96.90;;;;;;4880675;29;20069;-89
2021/03/02 08:30:33;;;;;;;52.55;23.80;;;4.60;96.80;;;;;;4898063;29;20069;-88
2021/03/02 08:33:05;;;;;;;54.95;26.65;;;4.70;96.70;;;;;;4893673;29;20068;-88
2021/03/02 08:35:37;;;;;;;56.10;28.13;;;4.90;96.60;;;;;;4898021;29;20040;-88
2021/03/02 08:38:04;;;;;;;54.30;24.30;;;5.00;96.50;;;;;;4895740;29;20029;-88
2021/03/02 08:40:30;;;;;;;52.80;26.52;;;5.10;96.40;;;;;;4897990;29;20561;-88
2021/03/02 08:43:10;;;;;;;47.42;24.63;;;5.20;96.30;;;;;;4896611;29;20123;-88
2021/03/02 08:45:42;;;;;;;49.50;23.70;;;5.40;96.20;;;;;;4896107;29;20159;-89
2021/03/02 08:48:31;;;;;;;47.38;22.80;;;5.50;96.10;;;;;;4898807;29;20033;-87
2021/03/02 08:51:02;;;;;;;54.00;25.70;;;5.70;96.00;;;;;;4898668;29;20413;-88
2021/03/02 08:53:41;;;;;;;49.17;25.48;;;5.80;95.80;;;;;;4897912;29;20027;-88
2021/03/02 08:56:19;;;;;;;45.85;22.63;;;5.90;95.70;;;;;;4897737;29;20397;-87
2021/03/02 08:58:53;;;;;;;47.65;23.42;;;6.00;95.60;;;;;;4890571;29;20036;-87
2021/03/02 09:01:21;;;;;;;47.33;22.13;;;6.20;95.60;;;;;;4892015;29;20041;-88
2021/03/02 09:03:47;;;;;;;48.63;22.52;;;6.30;95.30;;;;;;4893257;29;20025;-87
2021/03/02 09:06:15;;;;;;;36.95;21.00;;;6.40;95.20;;;;;;4882438;29;20038;-88
2021/03/02 09:09:02;;;;;;;37.33;20.60;;;6.60;95.10;;;;;;4896026;29;20041;-89
2021/03/02 09:11:34;;;;;;;41.55;21.48;;;6.80;95.00;;;;;;4901143;29;20489;-89
2021/03/02 09:14:02;;;;;;;44.10;21.30;;;6.90;94.90;;;;;;4901273;29;20036;-91
2021/03/02 09:16:45;;;;;;;37.60;21.38;;;7.10;94.70;;;;;;4899419;29;20442;-90
2021/03/02 09:19:20;;;;;;;;;;;7.30;94.50;;;;;;4898001;29;20020;-88
2021/03/02 09:22:02;;;;;;;33.83;18.73;;;7.40;94.60;;;;;;4895721;29;20372;-90
2021/03/02 09:24:30;;;;;;;32.20;17.80;;;7.60;94.30;;;;;;4883780;29;20032;-88
2021/03/02 09:26:59;;;;;;;29.50;16.90;;;7.70;94.10;;;;;;4881784;29;20127;-88
2021/03/02 09:29:32;;;;;;;27.05;15.35;;;7.90;93.90;;;;;;4883225;29;20381;-90
2021/03/02 09:32:00;;;;;;;29.10;15.40;;;8.10;93.10;;;;;;4890027;29;20028;-88
2021/03/02 09:34:44;;;;;;;21.80;13.02;;;8.30;92.90;;;;;;4897389;29;20025;-90
2021/03/02 09:37:19;;;;;;;16.92;9.23;;;8.60;92.70;;;;;;4899617;29;20024;-91
2021/03/02 09:39:59;;;;;;;14.98;7.40;;;8.80;92.40;;;;;;4899095;29;20080;-91
2021/03/02 09:42:27;;;;;;;14.45;7.97;;;9.10;91.60;;;;;;4894320;29;20128;-90
2021/03/02 09:44:54;;;;;;;14.20;7.90;;;9.30;90.30;;;;;;4888023;29;20029;-90
2021/03/02 09:47:31;;;;;;;14.23;8.60;;;9.50;90.10;;;;;;4897533;29;20037;-91
2021/03/02 09:50:00;;;;;;;13.73;8.68;;;9.70;89.30;;;;;;4897038;29;20037;-91
2021/03/02 09:52:43;;;;;;;14.57;8.35;;;9.80;88.20;;;;;;4888810;29;20393;-91
2021/03/02 09:55:11;;;;;;;12.85;7.88;;;9.90;87.60;;;;;;4879471;29;20048;-89
2021/03/02 09:57:58;;;;;;;14.30;8.52;;;10.00;87.40;;;;;;4891086;29;20028;-90
2021/03/02 10:00:30;;;;;;;13.25;8.13;;;10.10;85.90;;;;;;4907648;29;20064;-89
2021/03/02 10:03:03;;;;;;;14.52;8.57;;;10.10;85.20;;;;;;4891495;29;20032;-89
2021/03/02 10:05:33;;;;;;;12.98;8.30;;;10.20;84.70;;;;;;4885205;29;20128;-89
2021/03/02 10:08:14;;;;;;;19.00;9.32;;;10.20;84.10;;;;;;4884389;29;20052;-89
2021/03/02 10:10:39;;;;;;;13.45;8.38;;;10.20;83.80;;;;;;4879916;29;20133;-89
2021/03/02 10:13:05;;;;;;;14.60;8.43;;;10.30;83.30;;;;;;4880857;29;20036;-90
2021/03/02 10:15:32;;;;;;;16.63;9.02;;;10.40;82.90;;;;;;4908750;29;20128;-89
2021/03/02 10:18:03;;;;;;;17.70;8.98;;;10.40;81.80;;;;;;4901643;29;20045;-90
2021/03/02 10:20:29;;;;;;;15.15;8.88;;;10.40;81.70;;;;;;4904561;29;20043;-89
2021/03/02 10:23:04;;;;;;;14.00;8.93;;;10.50;81.50;;;;;;4899526;29;20029;-90
2021/03/02 10:25:40;;;;;;;17.10;9.02;;;10.50;80.90;;;;;;4895557;29;20040;-90
2021/03/02 10:28:09;;;;;;;15.73;9.55;;;10.60;81.60;;;;;;4907490;29;20024;-92
2021/03/02 10:30:39;;;;;;;20.48;10.98;;;10.60;80.60;;;;;;4888853;29;20112;-89
2021/03/02 10:33:06;;;;;;;19.42;9.85;;;10.70;80.30;;;;;;4893955;29;20024;-89
2021/03/02 10:35:33;;;;;;;16.70;9.82;;;10.80;80.00;;;;;;4896054;29;20037;-91
2021/03/02 10:37:59;;;;;;;16.92;9.45;;;10.80;79.50;;;;;;4908593;29;20081;-91
2021/03/02 10:40:24;;;;;;;15.85;9.35;;;10.80;79.70;;;;;;4897479;29;20028;-88
2021/03/02 10:42:50;;;;;;;19.08;10.13;;;10.90;79.60;;;;;;4897454;29;20442;-89
2021/03/02 10:45:15;;;;;;;14.15;9.70;;;10.90;79.50;;;;;;4897694;29;20043;-87
2021/03/02 10:47:44;;;;;;;19.88;10.02;;;11.00;79.40;;;;;;4896226;29;20047;-91
2021/03/02 10:50:10;;;;;;;16.30;10.40;;;11.10;79.30;;;;;;4896896;29;20040;-90
2021/03/02 10:52:36;;;;;;;15.13;9.20;;;11.10;78.80;;;;;;4897519;29;20028;-87
2021/03/02 10:55:02;;;;;;;20.40;10.95;;;11.20;78.70;;;;;;4898434;29;20032;-89
2021/03/02 10:57:27;;;;;;;15.73;9.18;;;11.30;78.20;;;;;;4898940;29;20165;-89
2021/03/02 10:59:53;;;;;;;16.10;8.55;;;11.30;78.80;;;;;;4902167;29;20024;-90
2021/03/02 11:02:18;;;;;;;16.45;9.25;;;11.40;78.10;;;;;;4901288;29;20545;-87
2021/03/02 11:04:44;;;;;;;13.73;9.35;;;11.50;77.90;;;;;;4901712;29;20500;-89
2021/03/02 11:07:09;;;;;;;19.42;9.57;;;11.60;77.60;;;;;;4899330;29;20088;-88
2021/03/02 11:09:35;;;;;;;16.17;8.27;;;11.70;77.10;;;;;;4887117;29;20136;-89
2021/03/02 11:12:01;;;;;;;16.55;8.27;;;11.70;76.90;;;;;;4891890;29;20038;-88
2021/03/02 11:14:26;;;;;;;14.57;8.40;;;11.80;76.80;;;;;;4891679;29;20033;-89
2021/03/02 11:16:52;;;;;;;15.50;8.77;;;11.90;76.00;;;;;;4886830;29;20025;-88
2021/03/02 11:19:18;;;;;;;15.48;8.73;;;12.00;75.00;;;;;;4898018;29;20037;-88
2021/03/02 11:21:43;;;;;;;12.65;7.88;;;12.00;75.10;;;;;;4901606;29;20552;-89
2021/03/02 11:24:09;;;;;;;13.25;7.70;;;12.10;74.80;;;;;;4901545;29;20107;-88
2021/03/02 11:26:34;;;;;;;13.63;7.38;;;12.10;74.70;;;;;;4899217;29;20024;-89
2021/03/02 11:29:00;;;;;;;14.95;8.52;;;12.20;74.50;;;;;;4896618;29;20402;-90
2021/03/02 11:31:25;;;;;;;13.90;8.13;;;12.30;73.70;;;;;;4900201;29;20119;-88
2021/03/02 11:33:51;;;;;;;13.75;8.95;;;12.40;72.90;;;;;;4900457;29;20075;-89
2021/03/02 11:36:18;;;;;;;14.75;8.52;;;12.40;71.80;;;;;;4898249;29;20029;-89
2021/03/02 11:38:44;;;;;;;11.93;7.35;;;12.40;71.60;;;;;;4901318;29;20025;-87
2021/03/02 11:41:09;;;;;;;16.30;9.10;;;12.40;72.10;;;;;;4901177;29;20044;-87
2021/03/02 11:43:35;;;;;;;14.73;8.57;;;12.50;71.10;;;;;;4902637;29;20020;-88
2021/03/02 11:46:02;;;;;;;12.05;7.55;;;12.60;71.00;;;;;;4898468;29;20101;-88
2021/03/02 11:48:27;;;;;;;12.68;7.75;;;12.70;70.60;;;;;;4902360;29;20508;-87
2021/03/02 11:50:53;;;;;;;17.00;9.65;;;12.70;70.20;;;;;;4901390;29;20044;-87
2021/03/02 11:53:19;;;;;;;14.80;9.30;;;12.70;70.60;;;;;;4900568;29;20036;-88
2021/03/02 11:55:44;;;;;;;13.25;8.27;;;12.80;70.20;;;;;;4902975;29;20037;-88
2021/03/02 11:58:11;;;;;;;18.10;9.55;;;12.80;70.40;;;;;;4885936;29;20028;-88
2021/03/02 12:00:36;;;;;;;16.27;9.60;;;12.90;70.80;;;;;;4884099;29;20093;-88
2021/03/02 12:03:03;;;;;;;15.25;9.07;;;13.00;69.80;;;;;;4893410;29;20029;-88
2021/03/02 12:05:28;;;;;;;16.52;8.85;;;13.00;70.30;;;;;;4901804;29;20020;-87
2021/03/02 12:07:54;;;;;;;15.27;8.98;;;13.10;70.60;;;;;;4897337;29;20508;-88
2021/03/02 12:10:19;;;;;;;13.90;9.65;;;13.20;69.00;;;;;;4889650;29;20123;-88
2021/03/02 12:12:45;;;;;;;13.82;8.35;;;13.20;68.60;;;;;;4901910;29;20028;-88
2021/03/02 12:15:12;;;;;;;15.90;8.95;;;13.30;68.60;;;;;;4901191;29;20032;-88
2021/03/02 12:17:37;;;;;;;16.08;9.38;;;13.30;68.10;;;;;;4902597;29;20053;-88
2021/03/02 12:20:05;;;;;;;15.30;8.60;;;13.40;67.80;;;;;;4900320;29;20028;-88
2021/03/02 12:22:31;;;;;;;11.43;7.82;;;13.40;67.70;;;;;;4892411;29;20227;-88
2021/03/02 12:24:56;;;;;;;17.05;10.57;;;13.50;67.10;;;;;;4898771;29;20470;-88
2021/03/02 12:27:22;;;;;;;20.58;9.10;;;13.50;66.40;;;;;;4896306;29;20549;-88
2021/03/02 12:29:47;;;;;;;14.50;10.07;;;13.50;66.70;;;;;;4899459;29;20040;-88
2021/03/02 12:32:13;;;;;;;14.70;9.43;;;13.60;66.30;;;;;;4899659;29;20104;-87
2021/03/02 12:34:38;;;;;;;16.77;9.70;;;13.60;66.70;;;;;;4901001;29;20028;-88
2021/03/02 12:37:05;;;;;;;14.35;8.77;;;13.70;66.30;;;;;;4900744;29;20052;-88
2021/03/02 12:39:31;;;;;;;17.55;9.63;;;13.80;66.30;;;;;;4900038;29;20024;-88
2021/03/02 12:41:57;;;;;;;16.95;10.07;;;13.80;66.00;;;;;;4900764;29;20063;-88
2021/03/02 12:44:23;;;;;;;20.60;10.63;;;13.80;64.60;;;;;;4901416;29;20426;-88
2021/03/02 12:46:49;;;;;;;16.33;9.43;;;13.90;65.50;;;;;;4914959;29;20039;-88